createdAt,value
2023-02-15T00:00:27.902Z,6.60
2023-02-15T00:02:56.581Z,8.40
2023-02-15T00:05:24.989Z,10.00
2023-02-15T00:07:54.089Z,5.70
2023-02-15T00:10:22.145Z,9.00
2023-02-15T00:12:51.911Z,8.20
2023-02-15T00:15:20.247Z,6.90
2023-02-15T00:17:49.416Z,10.10
2023-02-15T00:20:19.502Z,7.80
2023-02-15T00:22:47.560Z,7.20
2023-02-15T00:25:15.664Z,6.60
2023-02-15T00:27:43.664Z,4.60
2023-02-15T00:30:12.562Z,6.40
2023-02-15T00:32:41.190Z,7.20
2023-02-15T00:35:10.793Z,6.50
2023-02-15T00:37:40.215Z,8.40
2023-02-15T00:40:08.918Z,10.90
2023-02-15T00:42:38.156Z,7.50
2023-02-15T00:45:06.558Z,9.30
2023-02-15T00:47:34.560Z,7.60
2023-02-15T00:50:04.323Z,8.70
2023-02-15T00:52:32.876Z,6.60
2023-02-15T00:55:01.399Z,8.90
2023-02-15T00:57:29.768Z,7.70
2023-02-15T01:00:03.743Z,8.00
2023-02-15T01:02:35.546Z,8.90
2023-02-15T01:05:04.376Z,6.10
2023-02-15T01:07:32.417Z,7.70
2023-02-15T01:10:01.063Z,6.10
2023-02-15T01:12:29.877Z,6.30
2023-02-15T01:14:58.454Z,6.80
2023-02-15T01:17:27.305Z,9.00
2023-02-15T01:19:58.194Z,5.30
2023-02-15T01:22:26.458Z,9.80
2023-02-15T01:24:56.546Z,8.80
2023-02-15T01:27:24.646Z,7.80
2023-02-15T01:29:54.014Z,8.40
2023-02-15T01:32:23.953Z,5.80
2023-02-15T01:34:52.267Z,8.10
2023-02-15T01:37:21.675Z,5.50
2023-02-15T01:39:49.651Z,7.70
2023-02-15T01:42:24.820Z,6.30
2023-02-15T01:44:54.983Z,6.40
2023-02-15T01:50:31.234Z,8.10
2023-02-15T01:53:09.730Z,7.80
2023-02-15T01:55:39.881Z,5.80
2023-02-15T01:58:08.734Z,5.50
2023-02-15T02:00:36.747Z,6.60
2023-02-15T02:03:05.926Z,8.30
2023-02-15T02:05:35.912Z,5.80
2023-02-15T02:08:04.508Z,7.30
2023-02-15T02:10:34.935Z,4.20
2023-02-15T02:13:05.594Z,5.10
2023-02-15T02:15:57.340Z,9.60
2023-02-15T02:18:55.382Z,7.90
2023-02-15T02:21:50.745Z,4.00
2023-02-15T02:24:58.478Z,6.00
2023-02-15T02:27:35.789Z,9.30
2023-02-15T02:30:46.880Z,7.00
2023-02-15T02:33:22.179Z,8.40
2023-02-15T02:36:05.422Z,5.90
2023-02-15T02:39:02.308Z,5.10
2023-02-15T02:41:59.914Z,10.00
2023-02-15T02:44:35.084Z,10.70
2023-02-15T02:47:20.553Z,12.90
2023-02-15T02:49:48.825Z,14.40
2023-02-15T02:52:42.851Z,6.20
2023-02-15T02:55:16.584Z,4.70
2023-02-15T02:58:34.437Z,4.90
2023-02-15T03:01:09.558Z,6.40
2023-02-15T03:03:49.396Z,4.60
2023-02-15T03:06:20.134Z,5.10
2023-02-15T03:08:55.038Z,8.30
2023-02-15T03:11:23.201Z,7.30
2023-02-15T03:13:52.784Z,5.50
2023-02-15T03:16:27.015Z,6.50
2023-02-15T03:19:00.143Z,5.10
2023-02-15T03:21:39.920Z,4.90
2023-02-15T03:24:33.556Z,9.70
2023-02-15T03:27:03.829Z,7.80
2023-02-15T03:29:32.022Z,5.90
2023-02-15T03:32:02.896Z,4.90
2023-02-15T03:37:01.680Z,7.00
2023-02-15T03:39:50.561Z,7.10
2023-02-15T03:42:32.113Z,7.00
2023-02-15T03:45:04.750Z,5.10
2023-02-15T03:47:53.654Z,5.70
2023-02-15T03:50:50.505Z,7.20
2023-02-15T03:53:22.058Z,3.90
2023-02-15T03:55:57.106Z,7.00
2023-02-15T03:58:43.999Z,4.20
2023-02-15T04:01:36.277Z,4.30
2023-02-15T04:04:08.924Z,9.00
2023-02-15T04:06:37.010Z,6.00
2023-02-15T04:09:23.639Z,6.40
2023-02-15T04:11:53.832Z,5.90
2023-02-15T04:14:40.354Z,4.30
2023-02-15T04:17:10.742Z,6.20
2023-02-15T04:19:58.464Z,5.30
2023-02-15T04:22:45.292Z,6.60
2023-02-15T04:25:16.333Z,7.40
2023-02-15T04:27:50.097Z,5.50
2023-02-15T04:30:19.701Z,7.40
2023-02-15T04:32:48.108Z,14.20
2023-02-15T04:35:16.255Z,10.50
2023-02-15T04:37:50.311Z,11.10
2023-02-15T04:40:19.705Z,9.70
2023-02-15T04:42:51.048Z,9.60
2023-02-15T04:45:19.111Z,11.50
2023-02-15T04:47:47.694Z,8.60
2023-02-15T04:50:16.062Z,6.10
2023-02-15T04:52:45.567Z,14.00
2023-02-15T04:55:15.368Z,8.40
2023-02-15T04:57:44.080Z,6.40
2023-02-15T05:00:13.286Z,6.60
2023-02-15T05:02:41.493Z,8.90
2023-02-15T05:05:10.642Z,9.80
2023-02-15T05:07:38.927Z,7.70
2023-02-15T05:10:08.036Z,9.50
2023-02-15T05:12:36.672Z,9.30
2023-02-15T05:15:05.029Z,8.70
2023-02-15T05:17:33.685Z,9.10
2023-02-15T05:20:01.709Z,10.00
2023-02-15T05:22:29.923Z,8.90
2023-02-15T05:25:16.799Z,8.60
2023-02-15T05:28:05.253Z,7.90
2023-02-15T05:30:34.186Z,7.20
2023-02-15T05:33:04.081Z,6.30
2023-02-15T05:35:33.147Z,7.10
2023-02-15T05:38:01.221Z,11.10
2023-02-15T05:40:29.470Z,9.20
2023-02-15T05:42:58.025Z,10.50
2023-02-15T05:45:27.195Z,8.50
2023-02-15T05:47:59.465Z,8.20
2023-02-15T05:50:30.827Z,11.10
2023-02-15T05:53:06.705Z,8.60
2023-02-15T05:55:34.898Z,7.50
2023-02-15T05:58:02.933Z,7.60
2023-02-15T06:00:31.158Z,5.60
2023-02-15T06:02:59.189Z,11.50
2023-02-15T06:05:27.429Z,4.60
2023-02-15T06:07:56.381Z,8.60
2023-02-15T06:10:50.248Z,7.50
2023-02-15T06:13:18.443Z,9.30
2023-02-15T06:15:46.575Z,4.40
2023-02-15T06:18:15.537Z,10.00
2023-02-15T06:20:43.794Z,9.20
2023-02-15T06:23:12.088Z,7.00
2023-02-15T06:25:40.182Z,13.60
2023-02-15T06:28:08.319Z,14.10
2023-02-15T06:30:36.460Z,22.30
2023-02-15T06:33:05.218Z,36.70
2023-02-15T06:35:33.783Z,37.80
2023-02-15T06:38:02.417Z,10.50
2023-02-15T06:40:30.991Z,21.60
2023-02-15T06:43:02.217Z,31.20
2023-02-15T06:45:30.479Z,34.00
2023-02-15T06:47:58.538Z,24.40
2023-02-15T06:50:27.150Z,15.50
2023-02-15T06:52:58.921Z,10.00
2023-02-15T06:55:27.431Z,35.20
2023-02-15T06:57:55.676Z,11.50
2023-02-15T07:00:24.344Z,14.00
2023-02-15T07:02:56.761Z,21.40
2023-02-15T07:05:32.175Z,8.70
2023-02-15T07:08:00.726Z,20.40
2023-02-15T07:10:29.272Z,11.60
2023-02-15T07:12:57.594Z,9.30
2023-02-15T07:15:26.075Z,16.10
2023-02-15T07:17:54.647Z,15.10
2023-02-15T07:20:23.819Z,11.90
2023-02-15T07:22:52.014Z,11.10
2023-02-15T07:25:20.613Z,17.00
2023-02-15T07:27:49.116Z,9.90
2023-02-15T07:30:17.688Z,9.80
2023-02-15T07:33:06.691Z,9.00
2023-02-15T07:35:35.041Z,11.10
2023-02-15T07:38:03.202Z,11.50
2023-02-15T07:40:31.501Z,11.40
2023-02-15T07:43:00.272Z,8.90
2023-02-15T07:45:29.045Z,7.70
2023-02-15T07:48:02.091Z,13.30
2023-02-15T07:50:31.415Z,10.70
2023-02-15T07:52:59.531Z,8.20
2023-02-15T07:55:27.554Z,8.10
2023-02-15T07:57:55.752Z,10.10
2023-02-15T08:00:26.510Z,10.00
2023-02-15T08:03:14.590Z,14.20
2023-02-15T08:05:44.835Z,6.00
2023-02-15T08:08:31.785Z,6.70
2023-02-15T08:11:24.555Z,7.60
2023-02-15T08:13:56.473Z,8.30
2023-02-15T08:16:33.585Z,10.90
2023-02-15T08:19:06.150Z,10.10
2023-02-15T08:21:35.675Z,6.20
2023-02-15T08:24:04.358Z,9.80
2023-02-15T08:26:35.715Z,10.40
2023-02-15T08:29:04.412Z,8.20
2023-02-15T08:31:32.616Z,11.50
2023-02-15T08:34:00.783Z,10.00
2023-02-15T08:36:29.946Z,10.60
2023-02-15T08:38:59.088Z,8.40
2023-02-15T08:41:37.038Z,6.10
2023-02-15T08:44:08.750Z,12.20
2023-02-15T08:46:42.644Z,9.40
2023-02-15T08:49:14.893Z,8.70
2023-02-15T08:51:43.825Z,9.10
2023-02-15T08:54:17.718Z,7.00
2023-02-15T08:56:46.100Z,14.30
2023-02-15T08:59:19.074Z,7.90
2023-02-15T09:01:47.538Z,6.40
2023-02-15T09:04:16.977Z,8.80
2023-02-15T09:06:48.374Z,5.50
2023-02-15T09:09:23.452Z,7.80
2023-02-15T09:11:58.603Z,6.90
2023-02-15T09:14:28.006Z,6.90
2023-02-15T09:16:57.300Z,9.20
2023-02-15T09:19:26.012Z,6.20
2023-02-15T09:21:54.628Z,7.60
2023-02-15T09:24:23.083Z,11.40
2023-02-15T09:26:53.582Z,6.70
2023-02-15T09:29:21.806Z,17.40
2023-02-15T09:31:51.249Z,6.00
2023-02-15T09:34:21.375Z,9.60
2023-02-15T09:36:49.897Z,5.30
2023-02-15T09:39:20.036Z,7.00
2023-02-15T09:42:14.570Z,10.40
2023-02-15T09:45:05.056Z,8.80
2023-02-15T09:47:45.723Z,9.90
2023-02-15T09:50:36.762Z,10.10
2023-02-15T09:53:29.278Z,7.70
2023-02-15T09:56:06.661Z,7.30
2023-02-15T09:58:42.261Z,11.20
2023-02-15T10:01:26.798Z,9.50
2023-02-15T10:04:07.330Z,7.60
2023-02-15T10:09:44.914Z,12.00
2023-02-15T10:12:28.245Z,10.10
2023-02-15T10:15:35.637Z,15.70
2023-02-15T10:18:15.943Z,9.00
2023-02-15T10:21:06.926Z,10.40
2023-02-15T10:23:55.292Z,9.40
2023-02-15T10:26:42.102Z,8.70
2023-02-15T10:29:17.314Z,10.30
2023-02-15T10:31:54.135Z,6.20
2023-02-15T10:34:48.561Z,8.60
2023-02-15T10:37:56.216Z,10.80
2023-02-15T10:41:01.033Z,5.80
2023-02-15T10:43:32.453Z,5.30
2023-02-15T10:46:11.634Z,7.40
2023-02-15T10:48:47.025Z,7.10
2023-02-15T10:51:25.104Z,6.30
2023-02-15T10:54:06.928Z,7.60
2023-02-15T10:56:45.238Z,7.20
2023-02-15T10:59:35.212Z,7.90
2023-02-15T11:02:11.962Z,7.30
2023-02-15T11:04:55.813Z,7.00
2023-02-15T11:07:26.977Z,11.50
2023-02-15T11:10:08.876Z,9.30
2023-02-15T11:12:37.202Z,6.70
2023-02-15T11:15:16.543Z,8.70
2023-02-15T11:18:00.578Z,6.80
2023-02-15T11:20:34.536Z,7.40
2023-02-15T11:23:02.933Z,6.90
2023-02-15T11:25:35.111Z,5.60
2023-02-15T11:28:05.469Z,8.60
2023-02-15T11:30:57.862Z,6.20
2023-02-15T11:33:29.349Z,11.00
2023-02-15T11:36:04.830Z,11.50
2023-02-15T11:38:34.002Z,8.30
2023-02-15T11:41:15.687Z,8.90
2023-02-15T11:44:00.400Z,8.00
2023-02-15T11:46:29.863Z,7.60
2023-02-15T11:48:59.531Z,8.40
2023-02-15T11:51:28.914Z,6.30
2023-02-15T11:53:57.375Z,7.80
2023-02-15T11:56:26.208Z,5.90
2023-02-15T11:59:08.557Z,10.50
2023-02-15T12:01:39.525Z,6.70
2023-02-15T12:04:42.458Z,8.30
2023-02-15T12:07:27.159Z,5.70
2023-02-15T12:10:23.041Z,6.50
2023-02-15T12:13:19.198Z,5.40
2023-02-15T12:15:57.310Z,4.00
2023-02-15T12:18:45.365Z,6.60
2023-02-15T12:21:24.863Z,8.20
2023-02-15T12:23:54.889Z,5.90
2023-02-15T12:26:31.736Z,7.50
2023-02-15T12:29:03.221Z,10.20
2023-02-15T12:31:37.882Z,8.40
2023-02-15T12:34:28.035Z,16.80
2023-02-15T12:36:59.197Z,8.80
2023-02-15T12:39:28.671Z,5.40
2023-02-15T12:41:57.127Z,8.70
2023-02-15T12:44:30.120Z,9.10
2023-02-15T12:47:06.419Z,6.40
2023-02-15T12:49:35.738Z,12.40
2023-02-15T12:52:18.789Z,8.30
2023-02-15T12:54:47.328Z,9.60
2023-02-15T12:57:15.580Z,11.20
2023-02-15T12:59:51.966Z,8.40
2023-02-15T13:02:25.062Z,15.80
2023-02-15T13:04:53.111Z,9.90
2023-02-15T13:07:21.794Z,12.60
2023-02-15T13:09:50.785Z,11.00
2023-02-15T13:12:27.850Z,9.40
2023-02-15T13:14:58.762Z,9.40
2023-02-15T13:17:32.199Z,11.60
2023-02-15T13:20:25.720Z,13.60
2023-02-15T13:23:05.320Z,11.40
2023-02-15T13:25:48.562Z,14.80
2023-02-15T13:28:17.961Z,8.60
2023-02-15T13:30:48.552Z,9.00
2023-02-15T13:33:36.998Z,21.10
2023-02-15T13:36:21.805Z,14.00
2023-02-15T13:38:53.034Z,10.60
2023-02-15T13:41:26.109Z,15.80
2023-02-15T13:44:26.119Z,16.50
2023-02-15T13:47:06.750Z,16.40
2023-02-15T13:49:49.174Z,11.30
2023-02-15T13:52:24.737Z,11.30
2023-02-15T13:55:11.562Z,10.30
2023-02-15T13:58:08.161Z,13.90
2023-02-15T14:00:48.418Z,10.60
2023-02-15T14:03:41.174Z,9.40
2023-02-15T14:06:35.709Z,12.20
2023-02-15T14:09:11.816Z,13.90
2023-02-15T14:11:55.378Z,9.60
2023-02-15T14:15:08.873Z,14.90
2023-02-15T14:17:48.971Z,13.20
2023-02-15T14:20:37.729Z,9.00
2023-02-15T14:23:08.867Z,9.80
2023-02-15T14:25:49.528Z,10.80
2023-02-15T14:28:46.468Z,8.60
2023-02-15T14:31:15.214Z,12.80
2023-02-15T14:34:01.860Z,16.00
2023-02-15T14:36:31.325Z,12.20
2023-02-15T14:40:01.180Z,12.20
2023-02-15T14:42:35.738Z,11.50
2023-02-15T14:45:17.029Z,8.80
2023-02-15T14:48:17.646Z,12.70
2023-02-15T14:50:47.374Z,18.10
2023-02-15T14:53:18.581Z,13.20
2023-02-15T14:55:47.066Z,27.10
2023-02-15T14:58:15.201Z,16.20
2023-02-15T15:00:43.382Z,19.60
2023-02-15T15:03:22.874Z,23.50
2023-02-15T15:05:54.210Z,17.30
2023-02-15T15:08:28.065Z,16.90
2023-02-15T15:10:56.753Z,17.80
2023-02-15T15:13:34.168Z,17.70
2023-02-15T15:16:37.132Z,8.10
2023-02-15T15:19:07.432Z,14.00
2023-02-15T15:21:51.100Z,10.80
2023-02-15T15:24:38.247Z,12.50
2023-02-15T15:27:41.071Z,9.80
2023-02-15T15:30:15.166Z,10.00
2023-02-15T15:32:56.208Z,8.00
2023-02-15T15:36:06.693Z,10.50
2023-02-15T15:39:00.006Z,10.00
2023-02-15T15:41:56.684Z,9.30
2023-02-15T15:44:43.230Z,24.10
2023-02-15T15:47:32.083Z,13.50
2023-02-15T15:50:02.054Z,9.90
2023-02-15T15:52:32.592Z,12.50
2023-02-15T15:57:38.798Z,13.60
2023-02-15T16:00:45.739Z,18.30
2023-02-15T16:03:21.423Z,10.50
2023-02-15T16:05:55.391Z,16.30
2023-02-15T16:08:35.986Z,27.70
2023-02-15T16:11:34.189Z,22.80
2023-02-15T16:14:02.429Z,24.30
2023-02-15T16:16:30.720Z,29.20
2023-02-15T16:19:00.788Z,23.60
2023-02-15T16:21:33.021Z,27.10
2023-02-15T16:24:15.012Z,14.60
2023-02-15T16:27:14.747Z,20.60
2023-02-15T16:29:43.231Z,19.90
2023-02-15T16:32:25.732Z,26.10
2023-02-15T16:34:58.670Z,15.90
2023-02-15T16:37:28.564Z,20.90
2023-02-15T16:39:56.679Z,12.10
2023-02-15T16:42:26.200Z,11.30
2023-02-15T16:45:09.067Z,12.40
2023-02-15T16:47:44.978Z,15.00
2023-02-15T16:50:25.414Z,12.30
2023-02-15T16:52:55.585Z,15.20
2023-02-15T16:55:25.659Z,10.30
2023-02-15T16:58:00.014Z,13.60
2023-02-15T17:00:32.080Z,23.50
2023-02-15T17:03:03.029Z,30.50
2023-02-15T17:05:33.340Z,35.10
2023-02-15T17:10:39.902Z,22.10
2023-02-15T17:13:15.029Z,18.00
2023-02-15T17:16:07.793Z,16.10
2023-02-15T17:18:46.056Z,11.40
2023-02-15T17:21:18.821Z,12.60
2023-02-15T17:23:48.520Z,10.20
2023-02-15T17:26:20.671Z,10.40
2023-02-15T17:28:57.348Z,8.60
2023-02-15T17:31:32.991Z,11.20
2023-02-15T17:34:05.781Z,11.70
2023-02-15T17:36:35.061Z,10.50
2023-02-15T17:39:10.900Z,9.80
2023-02-15T17:41:40.842Z,12.30
2023-02-15T17:44:14.963Z,10.00
2023-02-15T17:46:44.522Z,11.80
2023-02-15T17:49:23.302Z,10.60
2023-02-15T17:51:51.424Z,10.00
2023-02-15T17:54:38.901Z,13.30
2023-02-15T17:57:13.015Z,18.10
2023-02-15T18:00:00.860Z,19.50
2023-02-15T18:02:51.857Z,18.70
2023-02-15T18:05:42.546Z,11.90
2023-02-15T18:08:37.991Z,10.00
2023-02-15T18:11:27.063Z,11.80
2023-02-15T18:14:00.707Z,14.40
2023-02-15T18:16:37.555Z,10.90
2023-02-15T18:19:17.810Z,16.90
2023-02-15T18:21:46.148Z,17.20
2023-02-15T18:24:24.957Z,13.10
2023-02-15T18:26:54.280Z,10.80
2023-02-15T18:29:22.729Z,10.70
2023-02-15T18:31:53.534Z,7.30
2023-02-15T18:34:25.799Z,7.90
2023-02-15T18:36:54.378Z,11.00
2023-02-15T18:39:40.994Z,8.90
2023-02-15T18:42:21.814Z,12.70
2023-02-15T18:45:05.464Z,8.70
2023-02-15T18:47:34.279Z,9.90
2023-02-15T18:50:02.368Z,12.50
2023-02-15T18:52:32.690Z,10.90
2023-02-15T18:55:02.920Z,8.80
2023-02-15T18:57:31.326Z,10.70
2023-02-15T18:59:59.363Z,12.70
2023-02-15T19:02:29.284Z,12.80
2023-02-15T19:04:57.355Z,18.60
2023-02-15T19:07:26.873Z,15.50
2023-02-15T19:09:57.244Z,11.00
2023-02-15T19:12:25.454Z,17.20
2023-02-15T19:14:59.089Z,10.40
2023-02-15T19:17:28.259Z,9.00
2023-02-15T19:19:56.335Z,8.70
2023-02-15T19:22:29.577Z,9.50
2023-02-15T19:25:00.978Z,8.40
2023-02-15T19:27:31.992Z,10.00
2023-02-15T19:32:31.871Z,7.00
2023-02-15T19:35:00.366Z,6.30
2023-02-15T19:37:37.324Z,6.70
2023-02-15T19:40:07.514Z,8.30
2023-02-15T19:42:35.744Z,9.40
2023-02-15T19:45:13.651Z,10.20
2023-02-15T19:47:43.503Z,12.50
2023-02-15T19:50:20.352Z,11.00
2023-02-15T19:52:48.515Z,8.00
2023-02-15T19:55:26.448Z,9.80
2023-02-15T19:57:55.858Z,7.70
2023-02-15T20:00:32.702Z,5.50
2023-02-15T20:03:02.026Z,8.80
2023-02-15T20:05:31.053Z,8.30
2023-02-15T20:07:59.118Z,12.10
2023-02-15T20:10:29.139Z,7.80
2023-02-15T20:12:57.360Z,10.30
2023-02-15T20:15:33.551Z,11.70
2023-02-15T20:18:04.285Z,12.40
2023-02-15T20:20:44.828Z,8.60
2023-02-15T20:23:30.700Z,11.50
2023-02-15T20:26:02.217Z,10.70
2023-02-15T20:28:31.720Z,12.10
2023-02-15T20:31:00.227Z,13.80
2023-02-15T20:33:28.645Z,10.40
2023-02-15T20:35:57.884Z,14.00
2023-02-15T20:38:28.349Z,17.60
2023-02-15T20:41:15.304Z,14.60
2023-02-15T20:43:43.377Z,9.80
2023-02-15T20:46:11.697Z,14.40
2023-02-15T20:48:40.330Z,15.40
2023-02-15T20:51:18.532Z,16.90
2023-02-15T20:53:47.965Z,14.60
2023-02-15T20:56:20.771Z,10.30
2023-02-15T20:58:49.063Z,9.90
2023-02-15T21:01:19.924Z,13.00
2023-02-15T21:03:48.501Z,10.40
2023-02-15T21:06:20.942Z,13.50
2023-02-15T21:08:49.066Z,13.80
2023-02-15T21:11:21.180Z,18.40
2023-02-15T21:14:23.441Z,14.80
2023-02-15T21:16:51.632Z,16.30
2023-02-15T21:19:21.243Z,16.40
2023-02-15T21:21:51.466Z,13.10
2023-02-15T21:24:20.762Z,11.40
2023-02-15T21:26:49.204Z,16.10
2023-02-15T21:29:18.710Z,8.80
2023-02-15T21:31:47.158Z,13.20
2023-02-15T21:34:15.733Z,11.60
2023-02-15T21:36:44.350Z,11.30
2023-02-15T21:39:18.282Z,13.40
2023-02-15T21:42:06.536Z,13.60
2023-02-15T21:44:53.298Z,9.20
2023-02-15T21:47:50.801Z,15.00
2023-02-15T21:50:39.501Z,12.30
2023-02-15T21:53:09.828Z,14.10
2023-02-15T21:55:38.847Z,16.80
2023-02-15T21:58:07.237Z,13.60
2023-02-15T22:00:36.301Z,11.60
2023-02-15T22:03:04.447Z,13.20
2023-02-15T22:05:33.439Z,14.50
2023-02-15T22:08:01.666Z,12.50
2023-02-15T22:10:32.936Z,14.80
2023-02-15T22:13:01.824Z,13.70
2023-02-15T22:15:36.824Z,15.00
2023-02-15T22:18:05.581Z,19.40
2023-02-15T22:20:34.879Z,15.70
2023-02-15T22:23:03.273Z,19.90
2023-02-15T22:25:31.769Z,18.00
2023-02-15T22:28:00.112Z,15.90
2023-02-15T22:30:30.679Z,15.60
2023-02-15T22:35:29.453Z,13.50
2023-02-15T22:37:58.159Z,14.10
2023-02-15T22:40:33.941Z,20.20
2023-02-15T22:43:03.756Z,16.90
2023-02-15T22:45:32.349Z,12.90
2023-02-15T22:48:00.738Z,13.40
2023-02-15T22:50:30.788Z,9.70
2023-02-15T22:53:02.389Z,14.20
2023-02-15T22:55:33.855Z,12.50
2023-02-15T22:58:01.905Z,13.90
2023-02-15T23:00:32.898Z,10.90
2023-02-15T23:03:00.906Z,11.50
2023-02-15T23:05:30.652Z,11.30
2023-02-15T23:08:11.576Z,11.60
2023-02-15T23:10:40.535Z,8.90
2023-02-15T23:13:25.559Z,7.10
2023-02-15T23:15:58.713Z,8.20
2023-02-15T23:18:38.533Z,12.30
2023-02-15T23:21:10.914Z,8.90
2023-02-15T23:23:41.711Z,10.40
2023-02-15T23:26:27.866Z,10.40
2023-02-15T23:28:57.345Z,9.10
2023-02-15T23:31:29.864Z,10.30
2023-02-15T23:34:12.802Z,7.80
2023-02-15T23:36:41.104Z,11.00
2023-02-15T23:39:34.338Z,9.70
2023-02-15T23:42:10.684Z,11.00
2023-02-15T23:44:38.782Z,9.00
2023-02-15T23:47:07.401Z,7.80
2023-02-15T23:49:35.591Z,10.60
2023-02-15T23:52:06.191Z,11.30
2023-02-15T23:54:35.541Z,17.30
2023-02-15T23:57:04.061Z,12.50
2023-02-15T23:59:32.399Z,12.20
